Alts de Aguada, Puerto Rico
Current Conditions -  °F | °C
As of 9:50 PM on Friday 19 Dec 2014 (Local Time) from TJBQ Reporting Station
Clear Clear  
Wind Chill: 73°   Ceiling: Unl
Heat Index: 73°   Visibility: 10mi
Dew Point: 66°   Wind: 7mph
Humidity: 78%   Direction: 120°ESE
Pressure: 30.03"   Gusts: NA
Location:  18.3974°N, 67.1679°W
Report Text: TJBQ 200150Z 12006KT 10SM SKC 23/19 A3003 RMK RWY08 ATIS X
Loading
Personal Weather Stations






























Interactive Weather Map New forecast layout! Learn more

10-Day Weather Forecast

Advertisements
Track Severe Weather on mobile